sensor_id;sensor_type;location;lat;lon;timestamp;P1;durP1;ratioP1;P2;durP2;ratioP2
2542;SDS011;1116;51.502;7.414;2024-03-02T00:00:26;2.40;;;1.97;;
2542;SDS011;1116;51.502;7.414;2024-03-02T00:02:59;3.57;;;1.70;;
2542;SDS011;1116;51.502;7.414;2024-03-02T00:05:29;1.93;;;1.77;;
2542;SDS011;1116;51.502;7.414;2024-03-02T00:07:59;2.17;;;1.60;;
2542;SDS011;1116;51.502;7.414;2024-03-02T00:10:38;2.33;;;2.10;;
2542;SDS011;1116;51.502;7.414;2024-03-02T00:13:08;3.00;;;2.20;;
2542;SDS011;1116;51.502;7.414;2024-03-02T00:15:42;2.57;;;1.80;;
2542;SDS011;1116;51.502;7.414;2024-03-02T00:18:20;1.80;;;1.70;;
2542;SDS011;1116;51.502;7.414;2024-03-02T00:20:54;2.47;;;1.60;;
2542;SDS011;1116;51.502;7.414;2024-03-02T00:23:27;1.90;;;1.70;;
2542;SDS011;1116;51.502;7.414;2024-03-02T00:25:58;2.63;;;1.97;;
2542;SDS011;1116;51.502;7.414;2024-03-02T00:28:29;3.47;;;2.73;;
2542;SDS011;1116;51.502;7.414;2024-03-02T00:31:02;3.43;;;2.30;;
2542;SDS011;1116;51.502;7.414;2024-03-02T00:33:38;3.30;;;2.40;;
2542;SDS011;1116;51.502;7.414;2024-03-02T00:36:11;2.67;;;1.80;;
2542;SDS011;1116;51.502;7.414;2024-03-02T00:38:46;2.03;;;1.60;;
2542;SDS011;1116;51.502;7.414;2024-03-02T00:41:19;2.43;;;1.90;;
2542;SDS011;1116;51.502;7.414;2024-03-02T00:43:54;1.93;;;1.73;;
2542;SDS011;1116;51.502;7.414;2024-03-02T00:46:28;2.40;;;1.97;;
2542;SDS011;1116;51.502;7.414;2024-03-02T00:49:11;1.70;;;1.60;;
2542;SDS011;1116;51.502;7.414;2024-03-02T00:51:46;1.70;;;1.60;;
2542;SDS011;1116;51.502;7.414;2024-03-02T00:54:19;2.23;;;1.90;;
2542;SDS011;1116;51.502;7.414;2024-03-02T00:56:51;2.17;;;1.97;;
2542;SDS011;1116;51.502;7.414;2024-03-02T00:59:23;2.00;;;1.80;;
2542;SDS011;1116;51.502;7.414;2024-03-02T01:01:53;1.50;;;1.40;;
2542;SDS011;1116;51.502;7.414;2024-03-02T01:04:25;2.47;;;1.80;;
2542;SDS011;1116;51.502;7.414;2024-03-02T01:06:55;2.50;;;1.93;;
2542;SDS011;1116;51.502;7.414;2024-03-02T01:09:26;2.80;;;1.87;;
2542;SDS011;1116;51.502;7.414;2024-03-02T01:11:56;1.70;;;1.60;;
2542;SDS011;1116;51.502;7.414;2024-03-02T01:14:26;1.77;;;1.67;;
2542;SDS011;1116;51.502;7.414;2024-03-02T01:16:56;1.67;;;1.57;;
2542;SDS011;1116;51.502;7.414;2024-03-02T01:19:29;2.70;;;1.60;;
2542;SDS011;1116;51.502;7.414;2024-03-02T01:21:59;3.00;;;2.00;;
2542;SDS011;1116;51.502;7.414;2024-03-02T01:24:29;2.40;;;2.03;;
2542;SDS011;1116;51.502;7.414;2024-03-02T01:26:59;2.30;;;1.80;;
2542;SDS011;1116;51.502;7.414;2024-03-02T01:29:29;2.40;;;2.13;;
2542;SDS011;1116;51.502;7.414;2024-03-02T01:31:59;2.90;;;1.70;;
2542;SDS011;1116;51.502;7.414;2024-03-02T01:34:32;1.87;;;1.60;;
2542;SDS011;1116;51.502;7.414;2024-03-02T01:37:01;2.60;;;1.93;;
2542;SDS011;1116;51.502;7.414;2024-03-02T01:39:33;2.67;;;2.20;;
2542;SDS011;1116;51.502;7.414;2024-03-02T01:42:03;2.07;;;1.83;;
2542;SDS011;1116;51.502;7.414;2024-03-02T01:44:33;2.63;;;2.10;;
2542;SDS011;1116;51.502;7.414;2024-03-02T01:47:03;2.30;;;1.97;;
2542;SDS011;1116;51.502;7.414;2024-03-02T01:49:36;2.03;;;1.83;;
2542;SDS011;1116;51.502;7.414;2024-03-02T01:52:07;3.57;;;1.97;;
2542;SDS011;1116;51.502;7.414;2024-03-02T01:54:37;2.47;;;1.83;;
2542;SDS011;1116;51.502;7.414;2024-03-02T01:57:07;3.77;;;1.80;;
2542;SDS011;1116;51.502;7.414;2024-03-02T01:59:37;3.17;;;2.20;;
2542;SDS011;1116;51.502;7.414;2024-03-02T02:02:07;2.53;;;1.80;;
2542;SDS011;1116;51.502;7.414;2024-03-02T02:04:40;2.80;;;2.10;;
2542;SDS011;1116;51.502;7.414;2024-03-02T02:07:10;2.27;;;1.60;;
2542;SDS011;1116;51.502;7.414;2024-03-02T02:09:41;2.07;;;1.87;;
2542;SDS011;1116;51.502;7.414;2024-03-02T02:12:11;2.93;;;2.20;;
2542;SDS011;1116;51.502;7.414;2024-03-02T02:14:46;2.00;;;1.80;;
2542;SDS011;1116;51.502;7.414;2024-03-02T02:17:17;2.20;;;1.93;;
2542;SDS011;1116;51.502;7.414;2024-03-02T02:19:50;2.53;;;2.00;;
2542;SDS011;1116;51.502;7.414;2024-03-02T02:22:22;1.80;;;1.60;;
2542;SDS011;1116;51.502;7.414;2024-03-02T02:24:53;2.10;;;1.90;;
2542;SDS011;1116;51.502;7.414;2024-03-02T02:27:23;1.90;;;1.70;;
2542;SDS011;1116;51.502;7.414;2024-03-02T02:29:53;1.97;;;1.77;;
2542;SDS011;1116;51.502;7.414;2024-03-02T02:32:22;2.03;;;1.83;;
2542;SDS011;1116;51.502;7.414;2024-03-02T02:34:52;1.83;;;1.53;;
2542;SDS011;1116;51.502;7.414;2024-03-02T02:37:25;1.50;;;1.40;;
2542;SDS011;1116;51.502;7.414;2024-03-02T02:39:55;1.50;;;1.40;;
2542;SDS011;1116;51.502;7.414;2024-03-02T02:42:25;5.73;;;3.00;;
2542;SDS011;1116;51.502;7.414;2024-03-02T02:44:55;2.43;;;1.77;;
2542;SDS011;1116;51.502;7.414;2024-03-02T02:47:25;1.70;;;1.60;;
2542;SDS011;1116;51.502;7.414;2024-03-02T02:49:56;2.20;;;1.60;;
2542;SDS011;1116;51.502;7.414;2024-03-02T02:52:28;2.60;;;1.40;;
2542;SDS011;1116;51.502;7.414;2024-03-02T02:55:05;1.40;;;1.30;;
2542;SDS011;1116;51.502;7.414;2024-03-02T02:57:37;1.43;;;1.30;;
2542;SDS011;1116;51.502;7.414;2024-03-02T03:00:10;2.53;;;1.37;;
2542;SDS011;1116;51.502;7.414;2024-03-02T03:02:46;1.30;;;1.20;;
2542;SDS011;1116;51.502;7.414;2024-03-02T03:05:17;1.47;;;1.30;;
2542;SDS011;1116;51.502;7.414;2024-03-02T03:07:50;1.30;;;1.20;;
2542;SDS011;1116;51.502;7.414;2024-03-02T03:10:20;1.43;;;1.30;;
2542;SDS011;1116;51.502;7.414;2024-03-02T03:12:54;2.30;;;1.37;;
2542;SDS011;1116;51.502;7.414;2024-03-02T03:15:24;2.70;;;1.47;;
2542;SDS011;1116;51.502;7.414;2024-03-02T03:17:54;1.40;;;1.30;;
2542;SDS011;1116;51.502;7.414;2024-03-02T03:20:24;2.97;;;1.30;;
2542;SDS011;1116;51.502;7.414;2024-03-02T03:22:56;1.40;;;1.30;;
2542;SDS011;1116;51.502;7.414;2024-03-02T03:25:26;1.80;;;1.53;;
2542;SDS011;1116;51.502;7.414;2024-03-02T03:27:56;3.37;;;1.33;;
2542;SDS011;1116;51.502;7.414;2024-03-02T03:30:24;1.20;;;1.07;;
2542;SDS011;1116;51.502;7.414;2024-03-02T03:32:54;1.50;;;1.40;;
2542;SDS011;1116;51.502;7.414;2024-03-02T03:35:24;2.27;;;1.40;;
2542;SDS011;1116;51.502;7.414;2024-03-02T03:37:57;2.27;;;1.40;;
2542;SDS011;1116;51.502;7.414;2024-03-02T03:40:27;3.67;;;1.80;;
2542;SDS011;1116;51.502;7.414;2024-03-02T03:42:57;1.80;;;1.30;;
2542;SDS011;1116;51.502;7.414;2024-03-02T03:45:27;1.70;;;1.27;;
2542;SDS011;1116;51.502;7.414;2024-03-02T03:47:57;1.33;;;1.20;;
2542;SDS011;1116;51.502;7.414;2024-03-02T03:50:27;2.13;;;1.10;;
2542;SDS011;1116;51.502;7.414;2024-03-02T03:52:59;1.87;;;1.50;;
2542;SDS011;1116;51.502;7.414;2024-03-02T03:55:29;2.40;;;1.27;;
2542;SDS011;1116;51.502;7.414;2024-03-02T03:57:59;2.03;;;1.30;;
2542;SDS011;1116;51.502;7.414;2024-03-02T04:00:29;2.30;;;1.13;;
2542;SDS011;1116;51.502;7.414;2024-03-02T04:02:59;1.80;;;1.10;;
2542;SDS011;1116;51.502;7.414;2024-03-02T04:05:29;3.00;;;2.23;;
2542;SDS011;1116;51.502;7.414;2024-03-02T04:08:02;2.20;;;1.50;;
2542;SDS011;1116;51.502;7.414;2024-03-02T04:10:32;2.40;;;1.57;;
2542;SDS011;1116;51.502;7.414;2024-03-02T04:13:03;2.50;;;1.10;;
2542;SDS011;1116;51.502;7.414;2024-03-02T04:15:33;2.20;;;1.47;;
2542;SDS011;1116;51.502;7.414;2024-03-02T04:18:04;1.33;;;1.23;;
2542;SDS011;1116;51.502;7.414;2024-03-02T04:20:34;1.50;;;1.30;;
2542;SDS011;1116;51.502;7.414;2024-03-02T04:23:07;2.27;;;1.60;;
2542;SDS011;1116;51.502;7.414;2024-03-02T04:25:37;1.40;;;1.30;;
2542;SDS011;1116;51.502;7.414;2024-03-02T04:28:07;2.40;;;1.37;;
2542;SDS011;1116;51.502;7.414;2024-03-02T04:30:38;1.87;;;1.47;;
2542;SDS011;1116;51.502;7.414;2024-03-02T04:33:08;4.90;;;1.40;;
2542;SDS011;1116;51.502;7.414;2024-03-02T04:35:39;1.70;;;1.50;;
2542;SDS011;1116;51.502;7.414;2024-03-02T04:38:12;1.77;;;1.50;;
2542;SDS011;1116;51.502;7.414;2024-03-02T04:40:42;2.13;;;1.23;;
2542;SDS011;1116;51.502;7.414;2024-03-02T04:43:12;1.33;;;1.23;;
2542;SDS011;1116;51.502;7.414;2024-03-02T04:45:43;2.10;;;1.20;;
2542;SDS011;1116;51.502;7.414;2024-03-02T04:48:13;2.10;;;1.30;;
2542;SDS011;1116;51.502;7.414;2024-03-02T04:50:43;1.63;;;1.50;;
2542;SDS011;1116;51.502;7.414;2024-03-02T04:53:15;2.53;;;1.40;;
2542;SDS011;1116;51.502;7.414;2024-03-02T04:55:43;1.53;;;1.43;;
2542;SDS011;1116;51.502;7.414;2024-03-02T04:58:46;2.50;;;1.50;;
2542;SDS011;1116;51.502;7.414;2024-03-02T05:01:16;2.83;;;1.40;;
2542;SDS011;1116;51.502;7.414;2024-03-02T05:03:46;2.17;;;1.53;;
2542;SDS011;1116;51.502;7.414;2024-03-02T05:06:16;2.73;;;1.53;;
2542;SDS011;1116;51.502;7.414;2024-03-02T05:08:49;1.93;;;1.57;;
2542;SDS011;1116;51.502;7.414;2024-03-02T05:11:19;2.70;;;1.50;;
2542;SDS011;1116;51.502;7.414;2024-03-02T05:14:15;1.60;;;1.40;;
2542;SDS011;1116;51.502;7.414;2024-03-02T05:16:45;1.90;;;1.67;;
2542;SDS011;1116;51.502;7.414;2024-03-02T05:19:15;2.10;;;1.67;;
2542;SDS011;1116;51.502;7.414;2024-03-02T05:21:45;2.53;;;1.70;;
2542;SDS011;1116;51.502;7.414;2024-03-02T05:24:19;1.90;;;1.70;;
2542;SDS011;1116;51.502;7.414;2024-03-02T05:26:49;2.10;;;1.63;;
2542;SDS011;1116;51.502;7.414;2024-03-02T05:29:19;1.90;;;1.60;;
2542;SDS011;1116;51.502;7.414;2024-03-02T05:31:49;2.03;;;1.50;;
2542;SDS011;1116;51.502;7.414;2024-03-02T05:34:19;3.17;;;1.93;;
2542;SDS011;1116;51.502;7.414;2024-03-02T05:36:49;1.90;;;1.70;;
2542;SDS011;1116;51.502;7.414;2024-03-02T05:39:22;3.20;;;1.80;;
2542;SDS011;1116;51.502;7.414;2024-03-02T05:41:52;3.07;;;2.10;;
2542;SDS011;1116;51.502;7.414;2024-03-02T05:44:22;3.00;;;1.93;;
2542;SDS011;1116;51.502;7.414;2024-03-02T05:46:52;2.23;;;2.00;;
2542;SDS011;1116;51.502;7.414;2024-03-02T05:49:22;3.03;;;2.13;;
2542;SDS011;1116;51.502;7.414;2024-03-02T05:51:52;2.83;;;2.43;;
2542;SDS011;1116;51.502;7.414;2024-03-02T05:54:24;2.27;;;2.03;;
2542;SDS011;1116;51.502;7.414;2024-03-02T05:56:55;2.30;;;2.00;;
2542;SDS011;1116;51.502;7.414;2024-03-02T05:59:43;4.40;;;2.20;;
2542;SDS011;1116;51.502;7.414;2024-03-02T06:02:13;3.03;;;2.30;;
2542;SDS011;1116;51.502;7.414;2024-03-02T06:04:43;2.50;;;2.10;;
2542;SDS011;1116;51.502;7.414;2024-03-02T06:07:13;2.70;;;2.50;;
2542;SDS011;1116;51.502;7.414;2024-03-02T06:09:46;2.67;;;2.37;;
2542;SDS011;1116;51.502;7.414;2024-03-02T06:12:17;3.43;;;2.23;;
2542;SDS011;1116;51.502;7.414;2024-03-02T06:14:48;3.37;;;2.63;;
2542;SDS011;1116;51.502;7.414;2024-03-02T06:17:18;3.60;;;2.50;;
2542;SDS011;1116;51.502;7.414;2024-03-02T06:19:48;3.00;;;2.70;;
2542;SDS011;1116;51.502;7.414;2024-03-02T06:22:18;4.53;;;2.30;;
2542;SDS011;1116;51.502;7.414;2024-03-02T06:24:52;3.70;;;2.60;;
2542;SDS011;1116;51.502;7.414;2024-03-02T06:27:22;3.60;;;2.63;;
2542;SDS011;1116;51.502;7.414;2024-03-02T06:29:52;3.43;;;2.87;;
2542;SDS011;1116;51.502;7.414;2024-03-02T06:32:22;3.10;;;2.60;;
2542;SDS011;1116;51.502;7.414;2024-03-02T06:34:52;3.70;;;2.67;;
2542;SDS011;1116;51.502;7.414;2024-03-02T06:37:22;3.63;;;2.73;;
2542;SDS011;1116;51.502;7.414;2024-03-02T06:39:54;2.70;;;2.40;;
2542;SDS011;1116;51.502;7.414;2024-03-02T06:42:24;3.70;;;2.70;;
2542;SDS011;1116;51.502;7.414;2024-03-02T06:44:59;2.60;;;2.40;;
2542;SDS011;1116;51.502;7.414;2024-03-02T06:47:30;4.23;;;2.90;;
2542;SDS011;1116;51.502;7.414;2024-03-02T06:50:00;3.00;;;2.60;;
2542;SDS011;1116;51.502;7.414;2024-03-02T06:52:30;3.67;;;3.20;;
